Station Historical Data
Daily Summary for February 8, 2017 Units:  English    Metric   Both
« Previous Day
Next Day »
Daily Weekly Monthly Yearly Custom
  High: Low: Average:
Temperature: 51.5 °F 20.7 °F 32.9 °F
Dew Point: 47.1 °F 17.4 °F 27.2 °F
Humidity: 94% 66% 80%
Wind Speed: 29.0mph 0.0mph 6.1mph
Wind Gust: 31.0mph - -
Wind- - WSW
Pressure: 29.90 in 29.33 in -
Precipitation: 0.00 in    
Historical Graphs
 
 
Tabular Data for February 8, 2017
Time Temperature Dew Point Pressure Wind Wind Speed Wind Gust Humidity Rainfall Rate (Hourly)
00:04 51.5 °F 47.1 °F 29.33 in WSW 15.0 mph 29.0 mph 85% 0.01 in
00:09 50.8 °F 46.5 °F 29.33 in WSW 16.0 mph 31.0 mph 85% 0.01 in
00:14 50.1 °F 45.8 °F 29.33 in SW 16.0 mph 31.0 mph 85% 0.01 in
00:19 49.2 °F 45.2 °F 29.33 in SW 14.0 mph 27.0 mph 86% 0.01 in
00:24 48.4 °F 44.4 °F 29.34 in WSW 13.0 mph 26.0 mph 86% 0.01 in
00:29 47.6 °F 43.6 °F 29.35 in SW 10.0 mph 26.0 mph 86% 0.01 in
00:34 46.7 °F 43.0 °F 29.34 in SW 10.0 mph 22.0 mph 87% 0.01 in
00:39 46.1 °F 42.7 °F 29.35 in SW 29.0 mph 29.0 mph 88% 0.00 in
00:44 45.6 °F 42.3 °F 29.36 in SW 19.0 mph 29.0 mph 88% 0.00 in
00:49 45.1 °F 41.8 °F 29.35 in SW 9.0 mph 25.0 mph 88% 0.00 in
00:54 44.7 °F 41.7 °F 29.36 in SW 9.0 mph 23.0 mph 89% 0.00 in
00:59 44.4 °F 41.4 °F 29.37 in WSW 11.0 mph 22.0 mph 89% 0.00 in
01:04 44.0 °F 41.0 °F 29.36 in WSW 13.0 mph 23.0 mph 89% 0.00 in
01:09 43.8 °F 40.8 °F 29.37 in SW 13.0 mph 23.0 mph 89% 0.00 in
01:14 43.5 °F 40.5 °F 29.38 in SW 12.0 mph 26.0 mph 89% 0.00 in
01:19 43.2 °F 40.5 °F 29.37 in SW 12.0 mph 28.0 mph 90% 0.00 in
01:24 42.9 °F 40.2 °F 29.38 in SW 12.0 mph 28.0 mph 90% 0.00 in
01:29 42.6 °F 39.9 °F 29.39 in WSW 12.0 mph 22.0 mph 90% 0.00 in
01:34 42.3 °F 39.6 °F 29.39 in SSW 9.0 mph 20.0 mph 90% 0.00 in
01:39 42.1 °F 39.7 °F 29.39 in WSW 9.0 mph 24.0 mph 91% 0.01 in
01:44 41.8 °F 39.4 °F 29.40 in WSW 13.0 mph 21.0 mph 91% 0.01 in
01:49 41.5 °F 39.1 °F 29.40 in WSW 12.0 mph 22.0 mph 91% 0.01 in
01:54 41.3 °F 38.9 °F 29.41 in SW 20.0 mph 23.0 mph 91% 0.01 in
01:59 41.1 °F 39.0 °F 29.41 in SW 15.0 mph 22.0 mph 92% 0.01 in
02:04 40.8 °F 38.7 °F 29.42 in SW 11.0 mph 24.0 mph 92% 0.01 in
02:09 40.4 °F 38.3 °F 29.42 in WSW 13.0 mph 24.0 mph 92% 0.01 in
02:14 40.1 °F 38.0 °F 29.42 in WSW 13.0 mph 24.0 mph 92% 0.01 in
02:19 39.9 °F 37.8 °F 29.42 in WSW 12.0 mph 25.0 mph 92% 0.01 in
02:24 39.8 °F 37.7 °F 29.43 in WSW 11.0 mph 25.0 mph 92% 0.01 in
02:29 39.6 °F 37.5 °F 29.44 in WSW 10.0 mph 19.0 mph 92% 0.01 in
02:34 39.4 °F 37.3 °F 29.44 in SW 9.0 mph 23.0 mph 92% 0.01 in
02:39 39.2 °F 37.3 °F 29.45 in WSW 12.0 mph 23.0 mph 93% 0.00 in
02:44 39.1 °F 37.2 °F 29.45 in West 12.0 mph 19.0 mph 93% 0.00 in
02:49 39.0 °F 37.1 °F 29.45 in West 10.0 mph 18.0 mph 93% 0.00 in
02:54 38.9 °F 37.0 °F 29.45 in WSW 14.0 mph 21.0 mph 93% 0.00 in
02:59 38.9 °F 37.0 °F 29.45 in WSW 15.0 mph 19.0 mph 93% 0.00 in
03:04 38.9 °F 37.0 °F 29.45 in SW 7.0 mph 25.0 mph 93% 0.00 in
03:09 38.9 °F 37.0 °F 29.46 in WSW 10.0 mph 25.0 mph 93% 0.00 in
03:14 38.7 °F 36.9 °F 29.46 in WSW 10.0 mph 19.0 mph 93% 0.01 in
03:19 38.5 °F 36.7 °F 29.47 in WSW 11.0 mph 24.0 mph 93% 0.01 in
03:24 38.4 °F 36.6 °F 29.47 in WSW 10.0 mph 24.0 mph 93% 0.01 in
03:29 38.3 °F 36.5 °F 29.47 in WSW 9.0 mph 21.0 mph 93% 0.01 in
03:34 38.2 °F 36.4 °F 29.48 in WSW 10.0 mph 21.0 mph 93% 0.01 in
03:39 38.3 °F 36.5 °F 29.49 in WSW 15.0 mph 22.0 mph 93% 0.01 in
03:44 38.2 °F 36.4 °F 29.49 in West 9.0 mph 21.0 mph 93% 0.01 in
03:49 38.1 °F 36.3 °F 29.50 in SW 16.0 mph 21.0 mph 93% 0.01 in
03:54 38.1 °F 36.5 °F 29.50 in WSW 16.0 mph 20.0 mph 94% 0.01 in
03:59 38.0 °F 36.4 °F 29.51 in WSW 5.0 mph 18.0 mph 94% 0.01 in
04:04 37.9 °F 36.1 °F 29.51 in West 13.0 mph 18.0 mph 93% 0.01 in
04:09 37.8 °F 36.0 °F 29.52 in SW 18.0 mph 18.0 mph 93% 0.02 in
04:14 37.7 °F 35.9 °F 29.52 in WSW 10.0 mph 21.0 mph 93% 0.01 in
04:19 37.5 °F 35.7 °F 29.53 in WSW 8.0 mph 21.0 mph 93% 0.01 in
04:24 37.5 °F 35.9 °F 29.54 in West 7.0 mph 15.0 mph 94% 0.01 in
04:29 37.5 °F 35.9 °F 29.54 in West 6.0 mph 15.0 mph 94% 0.01 in
04:34 37.7 °F 36.1 °F 29.55 in West 5.0 mph 12.0 mph 94% 0.01 in
04:39 38.0 °F 36.4 °F 29.56 in West 7.0 mph 17.0 mph 94% 0.01 in
04:44 38.0 °F 36.2 °F 29.56 in WSW 9.0 mph 20.0 mph 93% 0.01 in
04:49 38.0 °F 36.2 °F 29.57 in WSW 6.0 mph 15.0 mph 93% 0.02 in
04:54 37.9 °F 36.1 °F 29.58 in WSW 12.0 mph 20.0 mph 93% 0.02 in
04:59 37.7 °F 35.9 °F 29.58 in NW 9.0 mph 16.0 mph 93% 0.02 in
05:04 37.7 °F 35.6 °F 29.58 in WSW 9.0 mph 13.0 mph 92% 0.02 in
05:09 37.7 °F 35.3 °F 29.58 in West 10.0 mph 13.0 mph 91% 0.01 in
05:14 37.8 °F 35.4 °F 29.58 in WSW 8.0 mph 14.0 mph 91% 0.01 in
05:19 37.8 °F 35.1 °F 29.59 in West 6.0 mph 15.0 mph 90% 0.01 in
05:24 37.9 °F 34.9 °F 29.59 in West 6.0 mph 15.0 mph 89% 0.01 in
05:29 38.0 °F 34.8 °F 29.60 in West 8.0 mph 17.0 mph 88% 0.01 in
05:34 38.0 °F 34.2 °F 29.60 in West 9.0 mph 17.0 mph 86% 0.01 in
05:39 38.2 °F 34.1 °F 29.60 in West 9.0 mph 20.0 mph 85% 0.01 in
05:44 38.1 °F 34.0 °F 29.61 in West 8.0 mph 20.0 mph 85% 0.01 in
05:49 38.2 °F 34.1 °F 29.61 in West 9.0 mph 17.0 mph 85% 0.00 in
05:54 38.2 °F 34.1 °F 29.61 in WSW 8.0 mph 16.0 mph 85% 0.00 in
05:59 38.1 °F 34.0 °F 29.62 in SW 7.0 mph 13.0 mph 85% 0.00 in
06:04 38.1 °F 34.0 °F 29.62 in West 10.0 mph 17.0 mph 85% 0.00 in
06:09 38.0 °F 33.6 °F 29.62 in NW 9.0 mph 24.0 mph 84% 0.00 in
06:14 38.0 °F 33.6 °F 29.63 in West 4.0 mph 17.0 mph 84% 0.00 in
06:19 37.9 °F 33.5 °F 29.63 in WNW 3.0 mph 12.0 mph 84% 0.00 in
06:24 37.8 °F 33.4 °F 29.64 in WNW 7.0 mph 16.0 mph 84% 0.00 in
06:29 37.6 °F 33.2 °F 29.65 in WNW 9.0 mph 20.0 mph 84% 0.00 in
06:34 37.1 °F 32.4 °F 29.65 in WNW 10.0 mph 20.0 mph 83% 0.00 in
06:39 36.8 °F 32.4 °F 29.66 in West 10.0 mph 21.0 mph 84% 0.00 in
06:44 36.6 °F 32.2 °F 29.66 in West 10.0 mph 21.0 mph 84% 0.00 in
06:49 36.4 °F 32.0 °F 29.67 in WNW 6.0 mph 14.0 mph 84% 0.00 in
06:54 36.3 °F 32.2 °F 29.67 in WSW 6.0 mph 16.0 mph 85% 0.00 in
06:59 36.2 °F 32.1 °F 29.67 in West 6.0 mph 16.0 mph 85% 0.00 in
07:04 36.1 °F 32.3 °F 29.68 in West 6.0 mph 14.0 mph 86% 0.00 in
07:09 35.9 °F 32.1 °F 29.68 in West 7.0 mph 14.0 mph 86% 0.00 in
07:14 35.9 °F 32.1 °F 29.68 in NW 3.0 mph 9.0 mph 86% 0.00 in
07:19 35.6 °F 31.5 °F 29.69 in NNW 5.0 mph 9.0 mph 85% 0.00 in
07:24 35.5 °F 31.4 °F 29.69 in WNW 4.0 mph 14.0 mph 85% 0.00 in
07:29 35.4 °F 31.3 °F 29.70 in WNW 5.0 mph 13.0 mph 85% 0.00 in
07:34 35.2 °F 30.6 °F 29.70 in WNW 7.0 mph 13.0 mph 83% 0.00 in
07:39 35.0 °F 30.4 °F 29.71 in WNW 7.0 mph 13.0 mph 83% 0.00 in
07:44 34.7 °F 29.5 °F 29.71 in WNW 7.0 mph 18.0 mph 81% 0.00 in
07:49 34.5 °F 29.6 °F 29.72 in WNW 7.0 mph 18.0 mph 82% 0.00 in
07:54 34.4 °F 29.5 °F 29.72 in WNW 6.0 mph 14.0 mph 82% 0.00 in
07:59 34.2 °F 29.3 °F 29.73 in NNW 4.0 mph 10.0 mph 82% 0.00 in
08:04 33.8 °F 28.3 °F 29.73 in WNW 2.0 mph 13.0 mph 80% 0.00 in
08:09 33.5 °F 27.7 °F 29.74 in NW 6.0 mph 13.0 mph 79% 0.00 in
08:14 33.4 °F 27.3 °F 29.74 in WSW 7.0 mph 14.0 mph 78% 0.00 in
08:19 33.3 °F 27.5 °F 29.75 in NW 6.0 mph 12.0 mph 79% 0.00 in
08:24 33.2 °F 27.1 °F 29.75 in NNW 5.0 mph 11.0 mph 78% 0.00 in
08:29 32.9 °F 26.5 °F 29.75 in NW 2.0 mph 14.0 mph 77% 0.00 in
08:34 32.7 °F 26.0 °F 29.76 in NW 11.0 mph 12.0 mph 76% 0.00 in
08:39 32.5 °F 25.8 °F 29.76 in WNW 6.0 mph 12.0 mph 76% 0.00 in
08:44 32.4 °F 25.7 °F 29.76 in WNW 6.0 mph 12.0 mph 76% 0.00 in
08:49 32.4 °F 25.7 °F 29.76 in WNW 5.0 mph 12.0 mph 76% 0.00 in
08:54 32.2 °F 25.2 °F 29.76 in NW 6.0 mph 15.0 mph 75% 0.00 in
08:59 32.1 °F 25.1 °F 29.77 in WNW 7.0 mph 15.0 mph 75% 0.00 in
09:04 32.1 °F 25.4 °F 29.77 in WNW 12.0 mph 16.0 mph 76% 0.00 in
09:09 32.1 °F 25.1 °F 29.77 in West 2.0 mph 15.0 mph 75% 0.00 in
09:14 32.3 °F 25.9 °F 29.78 in NNW 5.0 mph 10.0 mph 77% 0.00 in
09:19 32.3 °F 25.3 °F 29.78 in NW 7.0 mph 12.0 mph 75% 0.00 in
09:24 32.4 °F 25.7 °F 29.78 in West 4.0 mph 9.0 mph 76% 0.00 in
09:29 32.5 °F 25.8 °F 29.78 in NW 3.0 mph 7.0 mph 76% 0.00 in
09:34 32.6 °F 25.9 °F 29.78 in West 2.0 mph 6.0 mph 76% 0.00 in
09:39 32.4 °F 25.7 °F 29.78 in North 5.0 mph 9.0 mph 76% 0.00 in
09:44 32.1 °F 25.1 °F 29.78 in NW 4.0 mph 12.0 mph 75% 0.00 in
09:49 32.0 °F 25.0 °F 29.79 in NW 5.0 mph 12.0 mph 75% 0.00 in
09:54 32.1 °F 25.1 °F 29.80 in NW 5.0 mph 10.0 mph 75% 0.00 in
09:59 32.1 °F 25.1 °F 29.80 in NW 5.0 mph 10.0 mph 75% 0.00 in
10:04 32.2 °F 25.2 °F 29.80 in NW 4.0 mph 9.0 mph 75% 0.00 in
10:09 32.2 °F 24.8 °F 29.80 in NW 4.0 mph 10.0 mph 74% 0.00 in
10:14 32.4 °F 25.0 °F 29.80 in NW 5.0 mph 10.0 mph 74% 0.00 in
10:19 32.5 °F 25.1 °F 29.80 in North 2.0 mph 10.0 mph 74% 0.00 in
10:24 32.7 °F 25.3 °F 29.81 in WNW 1.0 mph 10.0 mph 74% 0.00 in
10:29 32.7 °F 25.6 °F 29.82 in West 8.0 mph 9.0 mph 75% 0.00 in
10:34 32.2 °F 24.8 °F 29.82 in WSW 3.0 mph 12.0 mph 74% 0.00 in
10:39 32.1 °F 24.7 °F 29.82 in West 2.0 mph 11.0 mph 74% 0.00 in
10:44 32.2 °F 25.5 °F 29.83 in West 5.0 mph 11.0 mph 76% 0.00 in
10:49 32.0 °F 24.6 °F 29.83 in WNW 4.0 mph 10.0 mph 74% 0.00 in
10:54 32.1 °F 25.1 °F 29.83 in WNW 4.0 mph 9.0 mph 75% 0.00 in
10:59 32.1 °F 24.7 °F 29.83 in WNW 4.0 mph 9.0 mph 74% 0.00 in
11:04 32.1 °F 24.7 °F 29.83 in West 3.0 mph 8.0 mph 74% 0.00 in
11:09 32.2 °F 24.5 °F 29.83 in WSW 6.0 mph 10.0 mph 73% 0.00 in
11:14 32.1 °F 24.1 °F 29.84 in West 5.0 mph 10.0 mph 72% 0.00 in
11:19 32.0 °F 24.0 °F 29.84 in West 5.0 mph 10.0 mph 72% 0.00 in
11:24 32.0 °F 24.0 °F 29.84 in WSW 4.0 mph 10.0 mph 72% 0.00 in
11:29 32.3 °F 24.6 °F 29.84 in WSW 3.0 mph 8.0 mph 73% 0.00 in
11:34 32.4 °F 24.0 °F 29.84 in NNW 5.0 mph 10.0 mph 71% 0.00 in
11:39 32.1 °F 23.8 °F 29.85 in West 5.0 mph 9.0 mph 71% 0.00 in
11:44 32.0 °F 23.7 °F 29.84 in WNW 4.0 mph 9.0 mph 71% 0.00 in
11:49 32.1 °F 23.4 °F 29.85 in WNW 5.0 mph 10.0 mph 70% 0.00 in
11:54 32.4 °F 24.4 °F 29.85 in WNW 4.0 mph 10.0 mph 72% 0.00 in
11:59 32.4 °F 23.7 °F 29.85 in WNW 4.0 mph 9.0 mph 70% 0.00 in
12:04 32.6 °F 23.6 °F 29.85 in WSW 6.0 mph 9.0 mph 69% 0.00 in
12:09 32.8 °F 24.1 °F 29.84 in WNW 3.0 mph 7.0 mph 70% 0.00 in
12:14 32.8 °F 23.4 °F 29.84 in NW 4.0 mph 7.0 mph 68% 0.00 in
12:19 32.9 °F 23.5 °F 29.84 in West 5.0 mph 9.0 mph 68% 0.00 in
12:24 32.9 °F 23.5 °F 29.84 in West 5.0 mph 9.0 mph 68% 0.00 in
12:29 32.8 °F 23.0 °F 29.84 in WNW 3.0 mph 8.0 mph 67% 0.00 in
12:34 33.8 °F 25.0 °F 29.84 in NW 5.0 mph 6.0 mph 70% 0.00 in
12:39 33.9 °F 24.1 °F 29.85 in WSW 5.0 mph 10.0 mph 67% 0.00 in
12:44 34.8 °F 25.7 °F 29.85 in WNW 3.0 mph 7.0 mph 69% 0.00 in
12:49 35.5 °F 25.3 °F 29.84 in NW 3.0 mph 8.0 mph 66% 0.00 in
12:54 34.7 °F 25.2 °F 29.83 in NW 4.0 mph 8.0 mph 68% 0.00 in
12:59 34.6 °F 24.4 °F 29.84 in NW 4.0 mph 8.0 mph 66% 0.00 in
13:04 34.2 °F 24.4 °F 29.84 in NW 4.0 mph 8.0 mph 67% 0.00 in
13:09 34.1 °F 24.3 °F 29.84 in NW 5.0 mph 11.0 mph 67% 0.00 in
13:14 33.4 °F 24.0 °F 29.84 in NNW 2.0 mph 10.0 mph 68% 0.00 in
13:19 33.3 °F 23.9 °F 29.84 in North 4.0 mph 8.0 mph 68% 0.00 in
13:24 33.2 °F 23.8 °F 29.84 in NW 2.0 mph 9.0 mph 68% 0.00 in
13:29 33.1 °F 24.0 °F 29.84 in NW 4.0 mph 9.0 mph 69% 0.00 in
13:34 33.2 °F 24.1 °F 29.84 in WNW 4.0 mph 9.0 mph 69% 0.00 in
13:39 33.5 °F 24.4 °F 29.84 in NW 6.0 mph 7.0 mph 69% 0.00 in
13:44 33.5 °F 24.4 °F 29.84 in WNW 5.0 mph 11.0 mph 69% 0.00 in
13:49 33.1 °F 23.0 °F 29.84 in NNW 2.0 mph 8.0 mph 66% 0.00 in
13:54 33.2 °F 23.8 °F 29.84 in NW 4.0 mph 9.0 mph 68% 0.00 in
13:59 33.2 °F 24.1 °F 29.84 in NW 4.0 mph 10.0 mph 69% 0.00 in
14:04 32.6 °F 23.2 °F 29.84 in NNW 5.0 mph 10.0 mph 68% 0.00 in
14:09 32.4 °F 23.4 °F 29.84 in NNW 5.0 mph 10.0 mph 69% 0.00 in
14:14 32.6 °F 23.6 °F 29.84 in NW 5.0 mph 11.0 mph 69% 0.00 in
14:19 32.7 °F 23.3 °F 29.84 in NW 4.0 mph 11.0 mph 68% 0.00 in
14:24 32.5 °F 22.8 °F 29.84 in NW 4.0 mph 9.0 mph 67% 0.00 in
14:29 32.6 °F 23.2 °F 29.84 in NNW 3.0 mph 7.0 mph 68% 0.00 in
14:34 32.5 °F 22.8 °F 29.84 in NW 4.0 mph 8.0 mph 67% 0.00 in
14:39 32.5 °F 22.8 °F 29.84 in NNW 5.0 mph 6.0 mph 67% 0.00 in
14:44 32.5 °F 23.8 °F 29.85 in NW 5.0 mph 9.0 mph 70% 0.00 in
14:49 32.3 °F 24.6 °F 29.85 in NW 6.0 mph 10.0 mph 73% 0.00 in
14:54 31.8 °F 24.5 °F 29.85 in NNW 4.0 mph 8.0 mph 74% 0.00 in
14:59 31.4 °F 24.4 °F 29.85 in NNW 3.0 mph 10.0 mph 75% 0.00 in
15:04 31.4 °F 24.4 °F 29.85 in NNW 4.0 mph 9.0 mph 75% 0.00 in
15:09 31.5 °F 24.5 °F 29.85 in NNW 4.0 mph 10.0 mph 75% 0.00 in
15:14 31.1 °F 24.1 °F 29.85 in NNW 4.0 mph 10.0 mph 75% 0.00 in
15:19 30.8 °F 23.8 °F 29.85 in NNW 4.0 mph 9.0 mph 75% 0.00 in
15:24 30.8 °F 23.8 °F 29.85 in NNW 3.0 mph 8.0 mph 75% 0.00 in
15:29 30.5 °F 23.5 °F 29.86 in North 3.0 mph 9.0 mph 75% 0.00 in
15:34 30.0 °F 23.0 °F 29.85 in North 4.0 mph 9.0 mph 75% 0.00 in
15:39 29.8 °F 22.5 °F 29.86 in North 3.0 mph 6.0 mph 74% 0.00 in
15:44 29.8 °F 22.5 °F 29.86 in NNE 4.0 mph 7.0 mph 74% 0.00 in
15:49 29.9 °F 22.9 °F 29.86 in North 5.0 mph 6.0 mph 75% 0.00 in
15:54 29.9 °F 22.3 °F 29.85 in NE 2.0 mph 7.0 mph 73% 0.00 in
15:59 30.1 °F 22.5 °F 29.86 in NNW 4.0 mph 6.0 mph 73% 0.00 in
16:04 30.0 °F 22.4 °F 29.85 in North 3.0 mph 6.0 mph 73% 0.00 in
16:09 30.2 °F 22.9 °F 29.85 in North 1.0 mph 5.0 mph 74% 0.00 in
16:14 30.1 °F 22.8 °F 29.85 in North 3.0 mph 6.0 mph 74% 0.00 in
16:19 30.0 °F 22.4 °F 29.86 in North 2.0 mph 7.0 mph 73% 0.00 in
16:24 29.9 °F 22.3 °F 29.86 in North 3.0 mph 7.0 mph 73% 0.00 in
16:29 29.7 °F 22.1 °F 29.86 in North 3.0 mph 7.0 mph 73% 0.00 in
16:34 29.7 °F 22.1 °F 29.86 in North 2.0 mph 6.0 mph 73% 0.00 in
16:39 29.7 °F 22.1 °F 29.86 in NNW 2.0 mph 5.0 mph 73% 0.00 in
16:44 29.7 °F 22.4 °F 29.86 in NNW 3.0 mph 5.0 mph 74% 0.00 in
16:49 29.7 °F 22.1 °F 29.86 in NNW 2.0 mph 5.0 mph 73% 0.00 in
16:54 29.5 °F 21.9 °F 29.86 in North 1.0 mph 5.0 mph 73% 0.00 in
16:59 29.5 °F 22.2 °F 29.86 in NW 5.0 mph 5.0 mph 74% 0.00 in
17:04 29.3 °F 22.0 °F 29.86 in North 3.0 mph 5.0 mph 74% 0.00 in
17:09 29.2 °F 21.6 °F 29.85 in NNW 3.0 mph 5.0 mph 73% 0.00 in
17:14 29.1 °F 21.8 °F 29.86 in NNW 2.0 mph 4.0 mph 74% 0.00 in
17:19 29.1 °F 21.8 °F 29.86 in NNW 2.0 mph 4.0 mph 74% 0.00 in
17:24 29.1 °F 21.8 °F 29.86 in North 2.0 mph 4.0 mph 74% 0.00 in
17:29 29.1 °F 21.5 °F 29.87 in NNW 2.0 mph 6.0 mph 73% 0.00 in
17:34 29.2 °F 21.9 °F 29.87 in NNW 2.0 mph 6.0 mph 74% 0.00 in
17:39 29.3 °F 22.0 °F 29.87 in NNW 2.0 mph 5.0 mph 74% 0.00 in
17:44 29.2 °F 21.9 °F 29.87 in NNW 3.0 mph 5.0 mph 74% 0.00 in
17:49 29.2 °F 21.9 °F 29.86 in NNE 2.0 mph 6.0 mph 74% 0.00 in
17:54 29.2 °F 21.9 °F 29.86 in NNW 3.0 mph 6.0 mph 74% 0.00 in
17:59 29.2 °F 21.9 °F 29.87 in NNW 1.0 mph 6.0 mph 74% 0.00 in
18:04 29.3 °F 22.4 °F 29.86 in NW 4.0 mph 6.0 mph 75% 0.00 in
18:09 29.3 °F 22.4 °F 29.86 in North 5.0 mph 6.0 mph 75% 0.00 in
18:14 29.3 °F 22.4 °F 29.87 in North 3.0 mph 5.0 mph 75% 0.00 in
18:19 29.3 °F 22.4 °F 29.87 in NW 4.0 mph 6.0 mph 75% 0.00 in
18:24 29.3 °F 22.4 °F 29.86 in North 4.0 mph 6.0 mph 75% 0.00 in
18:29 29.2 °F 21.9 °F 29.87 in NNW 3.0 mph 7.0 mph 74% 0.00 in
18:34 29.2 °F 21.9 °F 29.87 in NNW 4.0 mph 7.0 mph 74% 0.00 in
18:39 29.2 °F 22.3 °F 29.88 in NNW 2.0 mph 7.0 mph 75% 0.00 in
18:44 29.2 °F 21.6 °F 29.88 in NNW 2.0 mph 6.0 mph 73% 0.00 in
18:49 29.2 °F 21.3 °F 29.88 in NNW 3.0 mph 7.0 mph 72% 0.00 in
18:54 29.2 °F 21.0 °F 29.88 in NNW 3.0 mph 7.0 mph 71% 0.00 in
18:59 29.2 °F 21.0 °F 29.88 in NW 3.0 mph 6.0 mph 71% 0.00 in
19:04 29.1 °F 20.5 °F 29.88 in NW 1.0 mph 6.0 mph 70% 0.00 in
19:09 29.2 °F 21.0 °F 29.88 in Calm   3.0 mph 71% 0.00 in
19:14 29.2 °F 21.0 °F 29.88 in WNW 1.0 mph 5.0 mph 71% 0.00 in
19:19 29.2 °F 20.6 °F 29.88 in NNW 3.0 mph 7.0 mph 70% 0.00 in
19:24 29.2 °F 20.6 °F 29.88 in NW 2.0 mph 8.0 mph 70% 0.00 in
19:29 29.2 °F 20.6 °F 29.88 in NW 4.0 mph 11.0 mph 70% 0.00 in
19:34 28.9 °F 21.3 °F 29.88 in NNW 6.0 mph 14.0 mph 73% 0.00 in
19:39 28.3 °F 21.7 °F 29.88 in North 8.0 mph 15.0 mph 76% 0.00 in
19:44 27.8 °F 21.8 °F 29.88 in North 7.0 mph 15.0 mph 78% 0.00 in
19:49 27.4 °F 21.7 °F 29.89 in North 5.0 mph 12.0 mph 79% 0.00 in
19:54 27.0 °F 21.4 °F 29.89 in NNE 5.0 mph 11.0 mph 79% 0.00 in
19:59 26.7 °F 21.1 °F 29.89 in NNE 5.0 mph 10.0 mph 79% 0.00 in
20:04 26.5 °F 21.2 °F 29.89 in North 6.0 mph 10.0 mph 80% 0.00 in
20:09 26.4 °F 21.1 °F 29.89 in NNW 6.0 mph 8.0 mph 80% 0.00 in
20:14 26.3 °F 21.0 °F 29.89 in NNW 4.0 mph 8.0 mph 80% 0.00 in
20:19 26.2 °F 20.9 °F 29.90 in NW 7.0 mph 10.0 mph 80% 0.00 in
20:24 26.1 °F 20.5 °F 29.90 in North 3.0 mph 10.0 mph 79% 0.00 in
20:29 26.0 °F 20.4 °F 29.90 in NNE 5.0 mph 8.0 mph 79% 0.00 in
20:34 25.9 °F 20.3 °F 29.90 in North 5.0 mph 7.0 mph 79% 0.00 in
20:39 25.8 °F 20.5 °F 29.89 in NNE 4.0 mph 7.0 mph 80% 0.00 in
20:44 25.8 °F 20.5 °F 29.90 in NNE 4.0 mph 10.0 mph 80% 0.00 in
20:49 25.8 °F 20.5 °F 29.89 in North 4.0 mph 10.0 mph 80% 0.00 in
20:54 25.7 °F 20.4 °F 29.90 in NNE 4.0 mph 8.0 mph 80% 0.00 in
20:59 25.7 °F 20.4 °F 29.90 in NNW 3.0 mph 10.0 mph 80% 0.00 in
21:04 25.6 °F 20.0 °F 29.90 in North 2.0 mph 10.0 mph 79% 0.00 in
21:09 25.4 °F 19.8 °F 29.90 in NW 8.0 mph 9.0 mph 79% 0.00 in
21:14 25.3 °F 19.7 °F 29.90 in North 3.0 mph 9.0 mph 79% 0.00 in
21:19 25.3 °F 19.7 °F 29.90 in NNW 3.0 mph 8.0 mph 79% 0.00 in
21:24 25.2 °F 19.6 °F 29.90 in NE 2.0 mph 8.0 mph 79% 0.00 in
21:29 25.0 °F 19.4 °F 29.90 in NNW 5.0 mph 8.0 mph 79% 0.00 in
21:34 25.0 °F 19.4 °F 29.90 in North 8.0 mph 10.0 mph 79% 0.00 in
21:39 24.9 °F 19.3 °F 29.90 in North 5.0 mph 10.0 mph 79% 0.00 in
21:44 24.7 °F 19.1 °F 29.90 in North 6.0 mph 12.0 mph 79% 0.00 in
21:49 24.6 °F 19.0 °F 29.90 in North 5.0 mph 12.0 mph 79% 0.00 in
21:54 24.5 °F 18.9 °F 29.90 in North 5.0 mph 9.0 mph 79% 0.00 in
21:59 24.5 °F 18.9 °F 29.89 in North 5.0 mph 9.0 mph 79% 0.00 in
22:04 24.5 °F 18.9 °F 29.90 in North 4.0 mph 10.0 mph 79% 0.00 in
22:09 24.4 °F 18.8 °F 29.89 in North 5.0 mph 10.0 mph 79% 0.00 in
22:14 24.3 °F 18.7 °F 29.89 in North 4.0 mph 12.0 mph 79% 0.00 in
22:19 24.2 °F 18.6 °F 29.90 in NNE 4.0 mph 10.0 mph 79% 0.00 in
22:24 24.2 °F 18.3 °F 29.89 in NNE 6.0 mph 8.0 mph 78% 0.00 in
22:29 24.0 °F 18.1 °F 29.90 in North 4.0 mph 7.0 mph 78% 0.00 in
22:34 24.0 °F 18.1 °F 29.89 in NNE 3.0 mph 8.0 mph 78% 0.00 in
22:39 23.9 °F 18.0 °F 29.89 in North 5.0 mph 8.0 mph 78% 0.00 in
22:44 23.9 °F 18.0 °F 29.89 in NNE 4.0 mph 7.0 mph 78% 0.00 in
22:49 23.8 °F 18.2 °F 29.88 in NNE 5.0 mph 9.0 mph 79% 0.00 in
22:54 23.6 °F 18.3 °F 29.88 in NNE 5.0 mph 9.0 mph 80% 0.00 in
22:59 23.4 °F 18.7 °F 29.89 in North 4.0 mph 8.0 mph 82% 0.00 in
23:04 23.2 °F 18.8 °F 29.89 in North 4.0 mph 8.0 mph 83% 0.00 in
23:09 22.9 °F 18.8 °F 29.89 in NNW 10.0 mph 10.0 mph 84% 0.00 in
23:14 22.5 °F 18.7 °F 29.89 in North 5.0 mph 14.0 mph 85% 0.00 in
23:19 22.0 °F 18.2 °F 29.89 in NNW 6.0 mph 12.0 mph 85% 0.00 in
23:24 21.7 °F 18.2 °F 29.89 in North 5.0 mph 12.0 mph 86% 0.00 in
23:29 21.6 °F 18.1 °F 29.89 in NNE 4.0 mph 11.0 mph 86% 0.00 in
23:34 21.4 °F 17.9 °F 29.89 in North 8.0 mph 11.0 mph 86% 0.00 in
23:39 21.2 °F 17.9 °F 29.89 in North 6.0 mph 9.0 mph 87% 0.00 in
23:44 21.1 °F 17.8 °F 29.89 in NNE 3.0 mph 13.0 mph 87% 0.00 in
23:49 20.9 °F 17.6 °F 29.90 in North 9.0 mph 10.0 mph 87% 0.00 in
23:54 20.7 °F 17.4 °F 29.89 in North 6.0 mph 10.0 mph 87% 0.00 in
23:59 20.7 °F 17.4 °F 29.89 in NNE 5.0 mph 9.0 mph 87% 0.00 in
Buffalo, New York, USA
Compliments of Weather Underground - 2.5 mb